Time;durP1;ratioP1;P1;durP2;ratioP2;P2;SDS_P1;SDS_P2;PMS_P1;PMS_P2;Temp;Humidity;BMP_temperature;BMP_pressure;BME280_temperature;BME280_humidity;BME280_pressure;Samples;Min_cycle;Max_cycle;Signal;HPM_P1;HPM_P2
2022/03/15 00:00:34;;;;;;;3.55;2.30;;;20.70;41.80;;;;;;5083183;27;43472;-61
2022/03/15 00:03:02;;;;;;;2.55;1.90;;;20.70;41.90;;;;;;5079376;28;43516;-61
2022/03/15 00:05:30;;;;;;;3.25;2.10;;;20.70;41.80;;;;;;5083032;27;43793;-61
2022/03/15 00:07:58;;;;;;;2.75;1.85;;;20.70;41.90;;;;;;5086319;28;43393;-61
2022/03/15 00:10:26;;;;;;;2.95;2.00;;;20.70;41.90;;;;;;5087116;27;43416;-61
2022/03/15 00:12:56;;;;;;;2.35;1.90;;;20.70;41.90;;;;;;5086891;27;43476;-61
2022/03/15 00:15:25;;;;;;;4.68;2.38;;;20.60;41.80;;;;;;5086121;27;44751;-61
2022/03/15 00:17:53;;;;;;;2.20;2.00;;;20.60;41.90;;;;;;5086583;27;43541;-61
2022/03/15 00:20:23;;;;;;;2.75;1.88;;;20.60;41.90;;;;;;5082120;28;43459;-61
2022/03/15 00:22:55;;;;;;;2.28;1.80;;;20.60;41.90;;;;;;5086909;27;43630;-61
2022/03/15 00:25:23;;;;;;;2.17;1.98;;;20.60;41.90;;;;;;5086449;27;45001;-61
2022/03/15 00:27:51;;;;;;;3.10;2.08;;;20.60;41.90;;;;;;5086873;27;43660;-61
2022/03/15 00:30:23;;;;;;;3.35;1.85;;;20.60;41.90;;;;;;5086801;28;43566;-61
2022/03/15 00:32:52;;;;;;;2.88;2.00;;;20.50;41.80;;;;;;5086843;27;43545;-60
2022/03/15 00:35:21;;;;;;;4.30;2.13;;;20.50;41.90;;;;;;5086159;27;44985;-61
2022/03/15 00:37:52;;;;;;;2.10;1.77;;;20.50;41.90;;;;;;5086140;27;43447;-61
2022/03/15 00:40:22;;;;;;;2.63;1.85;;;20.50;41.90;;;;;;5085086;28;43485;-61
2022/03/15 00:42:54;;;;;;;3.65;1.90;;;20.50;41.90;;;;;;5086168;27;43450;-61
2022/03/15 00:45:23;;;;;;;2.72;2.10;;;20.50;41.90;;;;;;5086264;28;45000;-61
2022/03/15 00:47:52;;;;;;;2.60;1.88;;;20.50;42.00;;;;;;5086303;27;43416;-61
2022/03/15 00:50:21;;;;;;;4.40;2.05;;;20.50;42.00;;;;;;5082034;28;43554;-61
2022/03/15 00:52:53;;;;;;;3.17;1.85;;;20.40;41.90;;;;;;5086443;27;43574;-61
2022/03/15 00:55:21;;;;;;;2.67;1.88;;;20.40;41.90;;;;;;5078768;28;43788;-61
2022/03/15 00:57:48;;;;;;;2.53;2.13;;;20.40;41.90;;;;;;5086193;27;43692;-61
2022/03/15 01:00:16;;;;;;;2.67;1.83;;;20.40;41.90;;;;;;5085362;27;43477;-61
2022/03/15 01:02:44;;;;;;;2.22;1.67;;;20.40;41.90;;;;;;5085435;27;43476;-61
2022/03/15 01:05:12;;;;;;;3.20;1.95;;;20.40;41.90;;;;;;5084748;28;43984;-62
2022/03/15 01:07:39;;;;;;;2.47;1.90;;;20.40;41.90;;;;;;5085960;27;43436;-61
2022/03/15 01:10:07;;;;;;;3.08;2.13;;;20.40;41.90;;;;;;5085937;28;43430;-61
2022/03/15 01:12:35;;;;;;;2.17;1.92;;;20.30;41.90;;;;;;5085880;27;43467;-61
2022/03/15 01:15:06;;;;;;;2.17;1.98;;;20.30;41.90;;;;;;5084245;28;43820;-61
2022/03/15 01:17:35;;;;;;;;;;;20.30;41.90;;;;;;5082548;28;43472;-62
2022/03/15 01:20:05;;;;;;;2.58;1.80;;;20.30;41.90;;;;;;5083997;28;43508;-62
2022/03/15 01:22:36;;;;;;;3.92;2.00;;;20.30;42.00;;;;;;5085888;27;43589;-61
2022/03/15 01:25:06;;;;;;;2.42;1.90;;;20.20;41.90;;;;;;5085035;27;44657;-61
2022/03/15 01:27:36;;;;;;;3.25;1.98;;;20.20;41.90;;;;;;5085535;27;43589;-61
2022/03/15 01:30:06;;;;;;;2.78;2.03;;;20.20;41.90;;;;;;5083876;28;43454;-61
2022/03/15 01:32:34;;;;;;;2.30;2.10;;;20.20;41.90;;;;;;5080870;28;43532;-61
2022/03/15 01:35:04;;;;;;;2.67;2.03;;;20.20;41.90;;;;;;5083849;28;43614;-61
2022/03/15 01:37:32;;;;;;;3.58;2.08;;;20.20;41.80;;;;;;5084161;28;44055;-61
2022/03/15 01:40:08;;;;;;;3.00;2.20;;;20.20;41.90;;;;;;5081292;28;43518;-61
2022/03/15 01:42:35;;;;;;;2.65;1.80;;;20.20;41.90;;;;;;5085575;28;43446;-61
2022/03/15 01:45:04;;;;;;;1.83;1.67;;;20.20;41.90;;;;;;5078752;28;43812;-61
2022/03/15 01:47:32;;;;;;;2.85;1.88;;;20.10;41.90;;;;;;5080226;28;43984;-61
2022/03/15 01:50:02;;;;;;;2.45;1.88;;;20.20;41.90;;;;;;5082574;28;43520;-61
2022/03/15 01:52:29;;;;;;;3.45;2.10;;;20.10;41.80;;;;;;5085331;27;43422;-61
2022/03/15 01:54:57;;;;;;;2.67;2.20;;;20.20;41.90;;;;;;5085052;27;43936;-61
2022/03/15 01:57:24;;;;;;;3.03;2.25;;;20.10;41.90;;;;;;5080837;28;43516;-61
2022/03/15 01:59:53;;;;;;;3.25;2.00;;;20.10;41.90;;;;;;5081748;28;43415;-61
2022/03/15 02:02:21;;;;;;;3.20;2.08;;;20.10;41.90;;;;;;5082249;28;43552;-61
2022/03/15 02:04:50;;;;;;;2.40;1.90;;;20.10;41.90;;;;;;5084799;27;44976;-61
2022/03/15 02:07:18;;;;;;;3.25;2.28;;;20.10;41.90;;;;;;5084924;27;43395;-61
2022/03/15 02:09:45;;;;;;;2.42;1.80;;;20.00;41.80;;;;;;5082328;28;43469;-61
2022/03/15 02:12:13;;;;;;;2.88;1.90;;;20.10;41.90;;;;;;5085153;27;44102;-62
2022/03/15 02:14:41;;;;;;;2.20;1.90;;;20.10;41.90;;;;;;5084632;27;43580;-61
2022/03/15 02:17:08;;;;;;;2.55;1.90;;;20.00;41.90;;;;;;5084610;28;43451;-61
2022/03/15 02:19:37;;;;;;;2.70;2.00;;;20.00;41.90;;;;;;5084750;27;43434;-61
2022/03/15 02:22:04;;;;;;;3.42;2.13;;;20.00;41.90;;;;;;5084497;27;43521;-61
2022/03/15 02:24:34;;;;;;;2.13;1.80;;;20.00;41.90;;;;;;5084466;27;43785;-61
2022/03/15 02:27:02;;;;;;;2.95;2.15;;;20.00;41.90;;;;;;5084917;27;43442;-61
2022/03/15 02:29:29;;;;;;;2.40;1.73;;;19.90;41.90;;;;;;5083251;27;43449;-62
2022/03/15 02:31:58;;;;;;;2.53;1.98;;;19.90;41.90;;;;;;5084754;27;43968;-62
2022/03/15 02:34:27;;;;;;;2.50;1.90;;;19.90;41.80;;;;;;5084592;27;44841;-61
2022/03/15 02:36:54;;;;;;;2.17;1.58;;;19.90;41.90;;;;;;5084578;28;43958;-61
2022/03/15 02:39:22;;;;;;;3.83;2.30;;;19.90;41.90;;;;;;5084644;27;43447;-61
2022/03/15 02:41:50;;;;;;;2.38;1.77;;;19.90;41.90;;;;;;5084591;28;43477;-61
2022/03/15 02:44:18;;;;;;;2.53;1.52;;;19.90;41.90;;;;;;5084243;27;43821;-61
2022/03/15 02:46:50;;;;;;;2.92;1.92;;;19.90;41.90;;;;;;5084534;27;44010;-61
2022/03/15 02:49:20;;;;;;;1.70;1.60;;;19.90;41.90;;;;;;5084776;28;43429;-61
2022/03/15 02:51:48;;;;;;;2.15;1.83;;;19.90;41.90;;;;;;5080230;28;43404;-61
2022/03/15 02:54:16;;;;;;;2.03;1.77;;;19.90;41.90;;;;;;5084306;27;44859;-61
2022/03/15 02:56:46;;;;;;;2.08;1.63;;;19.90;41.90;;;;;;5084415;27;43506;-62
2022/03/15 02:59:14;;;;;;;2.45;1.90;;;19.80;41.90;;;;;;5079965;28;43426;-60
2022/03/15 03:01:46;;;;;;;2.60;1.90;;;19.80;41.90;;;;;;5084001;27;43443;-61
2022/03/15 03:04:19;;;;;;;2.58;1.85;;;19.80;41.90;;;;;;5082853;28;44953;-61
2022/03/15 03:06:47;;;;;;;3.30;2.10;;;19.80;41.90;;;;;;5084302;27;43898;-61
2022/03/15 03:09:16;;;;;;;1.83;1.70;;;19.80;41.90;;;;;;5084183;28;43438;-61
2022/03/15 03:11:44;;;;;;;2.92;1.90;;;19.80;41.90;;;;;;5084042;27;43622;-61
2022/03/15 03:14:15;;;;;;;2.72;2.10;;;19.80;41.90;;;;;;5083682;27;43803;-61
2022/03/15 03:16:43;;;;;;;2.83;1.85;;;19.80;42.00;;;;;;5083908;27;43985;-61
2022/03/15 03:19:10;;;;;;;3.45;2.20;;;19.70;41.90;;;;;;5083815;27;43459;-61
2022/03/15 03:21:38;;;;;;;2.15;1.67;;;19.70;42.00;;;;;;5083931;27;43455;-62
2022/03/15 03:24:06;;;;;;;2.75;2.08;;;19.70;42.00;;;;;;5099529;27;45607;-61
2022/03/15 03:26:37;;;;;;;2.50;1.70;;;19.70;41.90;;;;;;5084023;28;43948;-62
2022/03/15 03:29:09;;;;;;;2.53;2.00;;;19.70;42.10;;;;;;5084076;27;43391;-62
2022/03/15 03:31:38;;;;;;;2.35;1.77;;;19.70;42.00;;;;;;5083655;27;43608;-61
2022/03/15 03:34:06;;;;;;;2.83;1.80;;;19.70;42.00;;;;;;5083445;27;44064;-61
2022/03/15 03:36:36;;;;;;;2.53;1.50;;;19.60;41.90;;;;;;5080315;28;43468;-61
2022/03/15 03:39:22;;;;;;;2.53;1.70;;;19.60;42.00;;;;;;5083923;27;43557;-61
2022/03/15 03:41:50;;;;;;;2.42;1.65;;;19.70;42.10;;;;;;5087472;27;43673;-62
2022/03/15 03:44:19;;;;;;;3.28;2.13;;;19.60;42.00;;;;;;5090492;27;44740;-61
2022/03/15 03:46:46;;;;;;;2.45;1.85;;;19.60;42.00;;;;;;5087803;28;43505;-62
2022/03/15 03:49:14;;;;;;;2.60;1.90;;;19.60;42.00;;;;;;5090464;27;43425;-61
2022/03/15 03:51:43;;;;;;;2.85;1.60;;;19.60;42.00;;;;;;5090366;27;43956;-61
2022/03/15 03:54:10;;;;;;;1.95;1.70;;;19.60;42.10;;;;;;5089840;28;44040;-61
2022/03/15 03:56:38;;;;;;;2.35;1.67;;;19.60;42.00;;;;;;5090527;27;43419;-61
2022/03/15 03:59:07;;;;;;;2.03;1.63;;;19.60;42.70;;;;;;5090132;28;43517;-61
2022/03/15 04:01:35;;;;;;;2.70;1.67;;;19.50;42.00;;;;;;5090031;27;43545;-61
2022/03/15 04:04:05;;;;;;;2.60;1.90;;;19.60;42.10;;;;;;5090028;27;44070;-61
2022/03/15 04:06:33;;;;;;;1.60;1.50;;;19.50;42.00;;;;;;5105579;27;43785;-62
2022/03/15 04:09:01;;;;;;;2.15;1.50;;;19.50;42.00;;;;;;5089601;28;43409;-62
2022/03/15 04:11:31;;;;;;;2.88;1.88;;;19.50;42.00;;;;;;5090115;27;43587;-61
2022/03/15 04:14:00;;;;;;;2.17;1.75;;;19.50;42.00;;;;;;5087504;28;44036;-61
2022/03/15 04:16:29;;;;;;;2.72;1.70;;;19.50;42.10;;;;;;5090214;27;43493;-61
2022/03/15 04:18:57;;;;;;;2.10;1.52;;;19.50;42.00;;;;;;5089969;27;43416;-61
2022/03/15 04:21:25;;;;;;;1.60;1.50;;;19.50;42.00;;;;;;5089832;28;43515;-61
2022/03/15 04:23:54;;;;;;;2.17;1.88;;;19.50;42.10;;;;;;5089294;28;45001;-61
2022/03/15 04:26:23;;;;;;;1.83;1.52;;;19.40;42.10;;;;;;5090071;27;43462;-61
2022/03/15 04:28:51;;;;;;;2.42;1.75;;;19.40;42.10;;;;;;5089791;28;43472;-61
2022/03/15 04:31:19;;;;;;;2.03;1.73;;;19.40;42.10;;;;;;5089847;27;43517;-61
2022/03/15 04:33:46;;;;;;;1.85;1.67;;;19.40;42.10;;;;;;5089511;27;43899;-61
2022/03/15 04:36:14;;;;;;;1.63;1.50;;;19.40;42.00;;;;;;5089646;27;43693;-60
2022/03/15 04:38:42;;;;;;;2.17;1.63;;;19.40;42.00;;;;;;5089663;27;43473;-62
2022/03/15 04:41:11;;;;;;;2.60;1.83;;;19.40;42.10;;;;;;5089579;27;43603;-61
2022/03/15 04:43:39;;;;;;;2.13;1.63;;;19.40;42.10;;;;;;5089609;27;43804;-61
2022/03/15 04:46:07;;;;;;;1.45;1.35;;;19.40;42.10;;;;;;5089623;27;43711;-61
2022/03/15 04:48:35;;;;;;;2.45;1.70;;;19.40;42.10;;;;;;5089797;27;43433;-61
2022/03/15 04:51:05;;;;;;;2.28;1.48;;;19.40;42.10;;;;;;5089104;28;43997;-61
2022/03/15 04:53:33;;;;;;;2.60;1.85;;;19.30;42.00;;;;;;5087204;27;44000;-61
2022/03/15 04:56:01;;;;;;;2.78;1.80;;;19.40;42.10;;;;;;5085894;28;43512;-61
2022/03/15 04:58:29;;;;;;;2.50;1.70;;;19.30;42.00;;;;;;5086206;28;43522;-61
2022/03/15 05:00:57;;;;;;;2.80;1.65;;;19.30;42.00;;;;;;5085701;27;43488;-60
2022/03/15 05:03:24;;;;;;;2.22;1.63;;;19.30;42.10;;;;;;5085985;27;45470;-61
2022/03/15 05:05:52;;;;;;;1.88;1.50;;;19.30;42.10;;;;;;5085887;27;43528;-61
2022/03/15 05:08:19;;;;;;;3.63;1.80;;;19.30;42.10;;;;;;5086197;27;43423;-61
2022/03/15 05:13:46;;;;;;;1.55;1.42;;;19.30;42.10;;;;;;5081522;28;43800;-61
2022/03/15 05:16:18;;;;;;;2.30;1.70;;;19.30;42.10;;;;;;5085839;27;43883;-61
2022/03/15 05:18:52;;;;;;;2.20;1.98;;;19.30;42.10;;;;;;5085835;27;43399;-61
2022/03/15 05:21:23;;;;;;;1.98;1.52;;;19.30;42.10;;;;;;5081254;28;43560;-61
2022/03/15 05:23:51;;;;;;;;;;;19.30;42.20;;;;;;5084151;28;44054;-61
2022/03/15 05:26:20;;;;;;;1.88;1.63;;;19.30;42.20;;;;;;5085703;27;43426;-61
2022/03/15 05:28:49;;;;;;;1.67;1.42;;;19.20;42.20;;;;;;5085924;27;43443;-61
2022/03/15 05:31:20;;;;;;;1.83;1.65;;;19.20;42.20;;;;;;5085765;27;43452;-61
2022/03/15 05:33:51;;;;;;;2.47;1.67;;;19.20;42.20;;;;;;5083110;28;44127;-61
2022/03/15 05:36:19;;;;;;;1.60;1.50;;;19.20;42.20;;;;;;5085678;27;43384;-61
2022/03/15 05:38:46;;;;;;;1.73;1.60;;;19.20;42.20;;;;;;5085559;27;43411;-62
2022/03/15 05:41:14;;;;;;;1.92;1.73;;;19.20;42.20;;;;;;5084181;28;43465;-61
2022/03/15 05:43:54;;;;;;;2.75;1.60;;;19.20;42.20;;;;;;5085200;27;44906;-61
2022/03/15 05:46:22;;;;;;;2.05;1.60;;;19.20;42.20;;;;;;5082573;28;43630;-61
2022/03/15 05:48:50;;;;;;;1.38;1.27;;;19.20;42.20;;;;;;5085550;27;43451;-61
2022/03/15 05:51:18;;;;;;;2.85;1.55;;;19.10;42.20;;;;;;5084892;27;43514;-61
2022/03/15 05:53:46;;;;;;;2.55;1.83;;;19.10;42.20;;;;;;5085043;27;44049;-61
2022/03/15 05:56:13;;;;;;;1.73;1.60;;;19.10;42.20;;;;;;5085207;27;43414;-61
2022/03/15 05:58:45;;;;;;;1.55;1.27;;;19.10;42.20;;;;;;5081685;28;43390;-61
2022/03/15 06:01:13;;;;;;;2.33;1.50;;;19.10;42.20;;;;;;5080221;27;43494;-61
2022/03/15 06:03:40;;;;;;;1.75;1.58;;;19.10;42.20;;;;;;5080387;27;43818;-60
2022/03/15 06:06:08;;;;;;;2.67;1.90;;;19.10;42.20;;;;;;5080451;28;43421;-61
2022/03/15 06:08:37;;;;;;;2.22;1.65;;;19.10;42.20;;;;;;5083073;27;43440;-60
2022/03/15 06:11:04;;;;;;;2.00;1.77;;;19.10;42.20;;;;;;5084950;27;43506;-61
2022/03/15 06:13:32;;;;;;;2.17;1.55;;;19.10;42.20;;;;;;5078394;27;44725;-61
2022/03/15 06:15:59;;;;;;;2.15;1.60;;;19.10;42.30;;;;;;5085010;27;43413;-61
2022/03/15 06:18:27;;;;;;;2.22;1.63;;;19.10;42.30;;;;;;5081065;27;43488;-61
2022/03/15 06:20:54;;;;;;;2.00;1.60;;;19.00;42.20;;;;;;5080700;27;43494;-61
2022/03/15 06:23:22;;;;;;;1.63;1.38;;;19.10;42.30;;;;;;5078125;28;43826;-61
2022/03/15 06:25:50;;;;;;;1.60;1.50;;;19.10;42.30;;;;;;5099135;27;45070;-61
2022/03/15 06:28:17;;;;;;;2.55;1.73;;;19.00;42.20;;;;;;5085108;27;43410;-61
2022/03/15 06:30:45;;;;;;;3.10;1.88;;;19.00;42.30;;;;;;5080821;27;43463;-61
2022/03/15 06:33:13;;;;;;;1.60;1.50;;;19.00;42.30;;;;;;5079343;28;46255;-61
2022/03/15 06:35:46;;;;;;;2.40;1.55;;;19.00;42.30;;;;;;5082690;28;43989;-61
2022/03/15 06:38:14;;;;;;;2.88;1.92;;;19.00;42.30;;;;;;5080778;27;43445;-61
2022/03/15 06:40:42;;;;;;;2.20;1.40;;;19.00;42.30;;;;;;5084541;27;43478;-61
2022/03/15 06:43:11;;;;;;;1.70;1.60;;;19.00;42.40;;;;;;5083409;27;44699;-61
2022/03/15 06:45:38;;;;;;;1.90;1.70;;;19.00;42.30;;;;;;5080361;28;43703;-61
2022/03/15 06:48:06;;;;;;;2.05;1.73;;;19.00;42.30;;;;;;5084579;27;43417;-61
2022/03/15 06:50:34;;;;;;;1.75;1.63;;;19.00;42.40;;;;;;5081587;27;43930;-61
2022/03/15 06:53:02;;;;;;;1.65;1.52;;;19.00;42.40;;;;;;5081822;27;44041;-61
2022/03/15 06:55:29;;;;;;;1.83;1.60;;;18.90;43.00;;;;;;5083051;28;43704;-60
2022/03/15 06:57:58;;;;;;;1.58;1.48;;;18.90;42.40;;;;;;5080375;27;43441;-61
2022/03/15 07:00:27;;;;;;;1.60;1.50;;;18.90;42.40;;;;;;5084276;27;43628;-61
2022/03/15 07:02:54;;;;;;;1.67;1.48;;;18.90;42.50;;;;;;5081620;28;44044;-61
2022/03/15 07:05:22;;;;;;;2.13;1.73;;;18.90;42.40;;;;;;5084443;27;43989;-60
2022/03/15 07:07:49;;;;;;;3.25;1.60;;;18.90;42.40;;;;;;5084570;27;43433;-60
2022/03/15 07:10:20;;;;;;;1.40;1.30;;;18.90;42.40;;;;;;5084114;27;43517;-61
2022/03/15 07:12:48;;;;;;;2.40;1.70;;;18.90;42.40;;;;;;5083959;27;43789;-60
2022/03/15 07:15:17;;;;;;;1.50;1.40;;;18.90;42.50;;;;;;5082954;27;43504;-60
2022/03/15 07:17:55;;;;;;;2.17;1.60;;;18.90;42.50;;;;;;5082329;28;43495;-60
2022/03/15 07:20:24;;;;;;;2.15;1.73;;;18.90;42.40;;;;;;5082942;27;43482;-61
2022/03/15 07:22:52;;;;;;;2.30;1.50;;;18.90;42.50;;;;;;5083798;28;43811;-61
2022/03/15 07:25:20;;;;;;;2.45;1.63;;;18.90;42.50;;;;;;5083671;27;43483;-61
2022/03/15 07:27:48;;;;;;;2.28;1.63;;;18.90;42.60;;;;;;5084096;27;43388;-61
2022/03/15 07:30:16;;;;;;;2.25;1.70;;;18.90;42.60;;;;;;5079805;27;44081;-60
2022/03/15 07:32:44;;;;;;;1.80;1.60;;;18.90;42.70;;;;;;5080075;27;43826;-60
2022/03/15 07:35:11;;;;;;;2.25;1.75;;;18.90;42.70;;;;;;5083591;27;43510;-61
2022/03/15 07:37:51;;;;;;;2.65;1.50;;;18.90;42.70;;;;;;5082606;27;43362;-61
2022/03/15 07:40:18;;;;;;;2.08;1.80;;;18.90;42.80;;;;;;5082919;28;43522;-60
2022/03/15 07:42:46;;;;;;;2.38;1.50;;;18.90;42.80;;;;;;5079826;28;43801;-61
2022/03/15 07:45:14;;;;;;;1.88;1.67;;;18.90;42.80;;;;;;5083351;28;43704;-60
2022/03/15 07:47:42;;;;;;;2.05;1.77;;;18.90;42.90;;;;;;5082805;27;43495;-61
2022/03/15 07:50:09;;;;;;;1.90;1.60;;;18.90;42.90;;;;;;5080506;27;43466;-62
2022/03/15 07:52:37;;;;;;;2.75;1.75;;;18.90;42.90;;;;;;5082884;28;43794;-61
2022/03/15 07:55:05;;;;;;;2.92;1.70;;;18.90;42.90;;;;;;5080166;27;43518;-60
2022/03/15 07:57:33;;;;;;;3.17;1.77;;;18.90;42.80;;;;;;5083623;27;43467;-60
2022/03/15 08:00:01;;;;;;;2.03;1.70;;;18.90;42.80;;;;;;5083619;27;43481;-60
2022/03/15 08:02:28;;;;;;;2.15;1.60;;;18.90;42.80;;;;;;5083229;27;44781;-60
2022/03/15 08:04:56;;;;;;;1.95;1.85;;;19.00;42.80;;;;;;5079953;28;43433;-60
2022/03/15 08:07:24;;;;;;;2.15;1.75;;;19.00;42.80;;;;;;5082422;28;43442;-60
2022/03/15 08:09:51;;;;;;;2.00;1.70;;;19.00;42.80;;;;;;5079189;27;43687;-60
2022/03/15 08:12:19;;;;;;;2.20;1.73;;;19.00;42.80;;;;;;5083105;28;44030;-61
2022/03/15 08:14:48;;;;;;;1.92;1.58;;;19.00;42.80;;;;;;5104427;27;43796;-61
2022/03/15 08:17:16;;;;;;;2.15;1.67;;;19.10;42.80;;;;;;5079542;27;43401;-60
2022/03/15 08:19:43;;;;;;;1.60;1.50;;;19.10;42.80;;;;;;5083215;27;43465;-61
2022/03/15 08:22:11;;;;;;;4.78;2.00;;;19.10;42.80;;;;;;5081182;28;43987;-61
2022/03/15 08:24:38;;;;;;;3.15;1.63;;;19.10;42.80;;;;;;5078764;27;43540;-59
2022/03/15 08:27:06;;;;;;;2.85;1.60;;;19.10;43.20;;;;;;5079651;27;43421;-61
2022/03/15 08:29:34;;;;;;;3.38;1.75;;;19.10;42.90;;;;;;5065340;28;43500;-60
2022/03/15 08:32:02;;;;;;;2.38;1.70;;;19.10;42.90;;;;;;5086259;28;44879;-60
2022/03/15 08:34:30;;;;;;;2.55;1.58;;;19.10;42.90;;;;;;5086739;27;43429;-60
2022/03/15 08:36:58;;;;;;;2.53;1.63;;;19.10;42.80;;;;;;5086769;27;43527;-60
2022/03/15 08:39:25;;;;;;;1.70;1.30;;;19.10;42.80;;;;;;5083198;28;43447;-61
2022/03/15 08:41:53;;;;;;;2.30;1.60;;;19.20;42.90;;;;;;5084883;28;44694;-60
2022/03/15 08:44:22;;;;;;;3.28;1.83;;;19.20;42.90;;;;;;5086347;27;43355;-60
2022/03/15 08:46:50;;;;;;;3.00;1.80;;;19.20;42.90;;;;;;5085744;28;43485;-60
2022/03/15 08:49:19;;;;;;;2.22;1.73;;;19.30;42.90;;;;;;5086350;27;43560;-61
2022/03/15 08:51:47;;;;;;;2.30;1.52;;;19.20;42.60;;;;;;5085986;28;44643;-60
2022/03/15 08:54:16;;;;;;;3.20;1.65;;;19.30;42.80;;;;;;5086023;27;43756;-60
2022/03/15 08:56:44;;;;;;;2.50;1.80;;;19.30;42.80;;;;;;5086149;27;43439;-60
2022/03/15 08:59:15;;;;;;;2.45;1.60;;;19.30;42.80;;;;;;5083418;27;43504;-60
2022/03/15 09:01:43;;;;;;;1.92;1.83;;;19.30;42.80;;;;;;5085887;28;44796;-60
2022/03/15 09:04:11;;;;;;;1.52;1.42;;;19.30;42.70;;;;;;5085804;28;43463;-60
2022/03/15 09:06:39;;;;;;;3.90;1.70;;;19.40;42.80;;;;;;5082204;27;43412;-60
2022/03/15 09:09:06;;;;;;;2.92;2.30;;;19.40;42.80;;;;;;5084068;28;43426;-60
2022/03/15 09:11:34;;;;;;;2.47;1.65;;;19.40;42.90;;;;;;5086047;27;44695;-60
2022/03/15 09:14:02;;;;;;;2.13;1.92;;;19.40;42.90;;;;;;5085456;27;43402;-60
2022/03/15 09:16:29;;;;;;;2.00;1.80;;;19.40;42.90;;;;;;5084601;27;43419;-60
2022/03/15 09:18:58;;;;;;;2.85;1.90;;;19.40;42.80;;;;;;5083653;28;43509;-60
2022/03/15 09:21:25;;;;;;;2.20;1.98;;;19.40;43.00;;;;;;5085389;27;43821;-60
2022/03/15 09:23:57;;;;;;;1.83;1.60;;;19.40;43.00;;;;;;5073852;27;43420;-60
2022/03/15 09:26:29;;;;;;;3.22;1.85;;;19.40;43.00;;;;;;5082741;27;43433;-60
2022/03/15 09:28:57;;;;;;;2.05;1.80;;;19.50;43.10;;;;;;5083421;27;43486;-60
2022/03/15 09:31:25;;;;;;;2.50;1.80;;;19.60;43.10;;;;;;5082126;27;44723;-59
2022/03/15 09:33:52;;;;;;;3.65;2.00;;;19.60;43.00;;;;;;5057591;28;44169;-59
2022/03/15 09:36:20;;;;;;;2.55;2.10;;;19.60;43.00;;;;;;5082465;27;43437;-59
2022/03/15 09:38:48;;;;;;;2.55;1.85;;;19.70;43.10;;;;;;5083196;27;43506;-61
2022/03/15 09:41:18;;;;;;;2.53;1.85;;;19.70;42.90;;;;;;5083900;27;45029;-60
2022/03/15 09:43:47;;;;;;;3.20;2.30;;;19.70;42.90;;;;;;5085429;27;43963;-61
2022/03/15 09:46:17;;;;;;;3.25;2.25;;;19.70;42.90;;;;;;5080002;27;43753;-60
2022/03/15 09:49:06;;;;;;;3.05;2.20;;;19.80;42.90;;;;;;5082621;27;43552;-59
2022/03/15 09:51:37;;;;;;;3.08;2.35;;;19.80;42.80;;;;;;5084008;27;44667;-60
2022/03/15 09:54:06;;;;;;;2.60;1.80;;;19.80;42.90;;;;;;5083543;27;43465;-59
2022/03/15 09:56:38;;;;;;;2.42;1.90;;;19.90;42.90;;;;;;5079697;27;43550;-60
2022/03/15 09:59:14;;;;;;;3.28;2.28;;;19.90;42.90;;;;;;5081270;27;43545;-59
2022/03/15 10:01:43;;;;;;;2.03;1.80;;;19.90;42.80;;;;;;5078906;27;44705;-60
2022/03/15 10:04:12;;;;;;;3.13;2.10;;;20.00;42.90;;;;;;5088493;27;44092;-60
2022/03/15 10:06:40;;;;;;;3.55;2.50;;;20.00;42.90;;;;;;5086409;27;43473;-60
2022/03/15 10:09:08;;;;;;;2.63;1.92;;;20.00;42.90;;;;;;5083176;27;43447;-61
2022/03/15 10:11:37;;;;;;;2.60;2.13;;;20.00;42.90;;;;;;5083270;27;44060;-59
2022/03/15 10:14:05;;;;;;;2.00;1.83;;;20.10;42.90;;;;;;5082325;27;43702;-59
2022/03/15 10:16:41;;;;;;;2.85;2.30;;;20.10;42.80;;;;;;5082340;27;43525;-60
2022/03/15 10:19:10;;;;;;;2.60;2.20;;;20.10;42.90;;;;;;5084471;27;43604;-60
2022/03/15 10:21:52;;;;;;;2.50;2.10;;;20.10;42.90;;;;;;5083780;27;44070;-61
2022/03/15 10:24:28;;;;;;;3.10;1.95;;;20.20;42.90;;;;;;5082646;27;43561;-60
2022/03/15 10:26:59;;;;;;;2.97;2.10;;;20.20;42.90;;;;;;5082683;27;43508;-61
2022/03/15 10:29:28;;;;;;;;;;;20.20;42.90;;;;;;5077359;27;43542;-60
2022/03/15 10:31:57;;;;;;;2.42;2.15;;;20.30;43.00;;;;;;5092697;27;44771;-61
2022/03/15 10:34:28;;;;;;;3.25;2.38;;;20.30;43.00;;;;;;5082476;27;43467;-60
2022/03/15 10:36:56;;;;;;;4.15;2.30;;;20.30;42.90;;;;;;5077909;27;43410;-60
2022/03/15 10:39:26;;;;;;;2.33;2.00;;;20.30;43.00;;;;;;5075751;27;44088;-60
2022/03/15 10:42:00;;;;;;;;;;;20.40;42.90;;;;;;5080888;27;44695;-60
2022/03/15 10:44:28;;;;;;;2.28;2.08;;;20.40;42.90;;;;;;5080000;27;43426;-60
2022/03/15 10:47:15;;;;;;;2.60;2.28;;;20.40;43.00;;;;;;5083899;27;43441;-60
2022/03/15 10:49:48;;;;;;;3.67;2.10;;;20.40;43.00;;;;;;5082576;27;43501;-60
2022/03/15 10:52:31;;;;;;;2.20;2.00;;;20.50;43.00;;;;;;5083179;27;43807;-61
2022/03/15 10:55:26;;;;;;;2.58;2.00;;;20.50;42.90;;;;;;5078730;27;43635;-60
2022/03/15 10:57:54;;;;;;;2.92;2.20;;;20.60;43.00;;;;;;5081925;27;43510;-60
2022/03/15 11:00:24;;;;;;;2.42;2.03;;;20.60;43.00;;;;;;5079435;27;43455;-60
2022/03/15 11:02:52;;;;;;;2.42;2.22;;;20.70;43.00;;;;;;5082678;27;43798;-59
2022/03/15 11:05:30;;;;;;;2.85;2.00;;;20.70;43.00;;;;;;5082429;27;44102;-59
2022/03/15 11:08:02;;;;;;;3.10;2.00;;;20.70;43.00;;;;;;5083150;27;43483;-59
2022/03/15 11:10:30;;;;;;;3.55;2.00;;;20.80;43.10;;;;;;5083113;27;43499;-60
2022/03/15 11:13:02;;;;;;;4.05;2.05;;;20.80;42.90;;;;;;5082291;27;44143;-60
2022/03/15 11:15:30;;;;;;;4.18;2.03;;;20.90;43.10;;;;;;5064299;27;43968;-59
2022/03/15 11:18:03;;;;;;;2.47;1.85;;;20.90;43.10;;;;;;5085144;27;43462;-59
2022/03/15 11:20:36;;;;;;;2.28;2.03;;;20.90;43.00;;;;;;5081924;27;43439;-59
2022/03/15 11:23:09;;;;;;;2.78;2.00;;;21.00;43.00;;;;;;5077048;27;44173;-60
2022/03/15 11:25:45;;;;;;;3.75;2.17;;;21.10;43.00;;;;;;5077971;27;43574;-60
2022/03/15 11:28:15;;;;;;;2.35;1.98;;;21.10;43.00;;;;;;5081816;27;43453;-60
2022/03/15 11:30:43;;;;;;;3.45;2.33;;;21.10;42.90;;;;;;5082641;27;43438;-59
2022/03/15 11:33:12;;;;;;;3.38;2.13;;;21.20;43.00;;;;;;5082367;27;43883;-59
2022/03/15 11:35:41;;;;;;;2.30;1.85;;;21.20;42.90;;;;;;5074365;27;43826;-59
2022/03/15 11:38:13;;;;;;;2.33;1.80;;;21.20;42.90;;;;;;5080791;27;43964;-60
2022/03/15 11:40:42;;;;;;;3.58;2.22;;;21.30;43.00;;;;;;5084518;27;43537;-60
2022/03/15 11:43:22;;;;;;;2.17;2.00;;;21.30;42.90;;;;;;5081946;27;44400;-60
2022/03/15 11:46:03;;;;;;;2.28;1.77;;;21.30;42.90;;;;;;5082268;27;43485;-59
2022/03/15 11:48:44;;;;;;;2.38;1.95;;;21.40;42.90;;;;;;5083319;27;43756;-59
2022/03/15 11:51:31;;;;;;;;;;;21.50;42.90;;;;;;5082295;27;43458;-60
2022/03/15 11:54:22;;;;;;;2.42;2.10;;;21.50;42.80;;;;;;5082530;27;45290;-59
2022/03/15 11:57:30;;;;;;;2.25;1.85;;;21.50;42.90;;;;;;5080447;27;43579;-59
2022/03/15 11:59:57;;;;;;;2.20;1.90;;;21.50;42.80;;;;;;5048490;27;43543;-60
2022/03/15 12:02:29;;;;;;;2.63;2.03;;;21.50;43.50;;;;;;5082768;27;43575;-60
2022/03/15 12:04:57;;;;;;;2.78;2.03;;;21.60;42.80;;;;;;5085099;27;43996;-60
2022/03/15 12:07:43;;;;;;;4.43;2.00;;;21.60;42.80;;;;;;5085630;27;44097;-60
2022/03/15 12:10:22;;;;;;;1.77;1.67;;;21.70;42.70;;;;;;5081141;27;43482;-59
2022/03/15 12:13:04;;;;;;;2.75;1.92;;;21.70;42.60;;;;;;5085661;27;43559;-60
2022/03/15 12:15:38;;;;;;;2.30;2.10;;;21.70;42.60;;;;;;5084927;27;43794;-60
2022/03/15 12:18:23;;;;;;;2.35;1.77;;;21.70;42.60;;;;;;5086708;27;43368;-60
2022/03/15 12:21:08;;;;;;;1.95;1.75;;;21.70;42.50;;;;;;5084825;27;43910;-60
2022/03/15 12:23:43;;;;;;;3.00;1.80;;;21.80;42.50;;;;;;5085590;27;43659;-59
2022/03/15 12:26:31;;;;;;;2.08;1.88;;;21.80;42.50;;;;;;5088305;27;44966;-60
2022/03/15 12:29:02;;;;;;;2.45;2.03;;;21.80;42.40;;;;;;5084256;27;44098;-60
2022/03/15 12:31:34;;;;;;;1.90;1.80;;;21.90;42.40;;;;;;5085963;27;43441;-60
2022/03/15 12:34:20;;;;;;;2.25;1.70;;;21.90;42.50;;;;;;5065428;27;43399;-60
2022/03/15 12:37:01;;;;;;;2.55;1.70;;;22.00;42.50;;;;;;5107806;27;44888;-60
2022/03/15 12:39:32;;;;;;;2.38;2.05;;;21.90;42.40;;;;;;5083515;27;43557;-59
2022/03/15 12:42:05;;;;;;;2.28;1.90;;;22.00;42.40;;;;;;5083214;27;43444;-60
2022/03/15 12:44:39;;;;;;;2.65;1.85;;;22.00;42.40;;;;;;5088405;27;43506;-60
2022/03/15 12:47:18;;;;;;;1.92;1.83;;;22.00;42.30;;;;;;5085323;27;44978;-60
2022/03/15 12:50:04;;;;;;;1.70;1.58;;;22.00;42.40;;;;;;5084260;27;43462;-60
2022/03/15 12:53:07;;;;;;;1.85;1.75;;;22.10;42.30;;;;;;5083474;27;43438;-60
2022/03/15 12:55:35;;;;;;;1.88;1.73;;;22.10;42.30;;;;;;5084629;27;43496;-60
2022/03/15 12:58:06;;;;;;;2.58;1.75;;;22.10;42.20;;;;;;5084877;27;43850;-60
2022/03/15 13:00:36;;;;;;;1.90;1.60;;;22.10;42.30;;;;;;5085292;27;43510;-60
2022/03/15 13:03:17;;;;;;;1.97;1.60;;;22.20;42.30;;;;;;5085083;27;43489;-60
2022/03/15 13:05:47;;;;;;;2.13;1.40;;;22.20;42.30;;;;;;5082314;27;43732;-60